Time;durP1;ratioP1;P1;durP2;ratioP2;P2;SDS_P1;SDS_P2;PMS_P1;PMS_P2;Temp;Humidity;BMP_temperature;BMP_pressure;BME280_temperature;BME280_humidity;BME280_pressure;Samples;Min_cycle;Max_cycle;Signal;HPM_P1;HPM_P2
2023/12/27 00:00:39;;;;;;;3.87;1.77;;;;;;;7.52;100.00;153290.56;5001471;28;20556;-82
2023/12/27 00:03:05;;;;;;;2.87;1.80;;;;;;;7.51;100.00;153287.97;5000305;28;20524;-82
2023/12/27 00:05:32;;;;;;;3.20;1.50;;;;;;;7.52;100.00;153291.81;4966819;28;20868;-82
2023/12/27 00:07:58;;;;;;;2.50;2.10;;;;;;;7.48;100.00;153281.50;4989977;28;20453;-82
2023/12/27 00:10:25;;;;;;;3.23;1.80;;;;;;;7.47;100.00;153277.63;4992344;28;20836;-82
2023/12/27 00:12:51;;;;;;;4.73;2.23;;;;;;;7.49;100.00;153282.81;4986347;28;20959;-82
2023/12/27 00:15:18;;;;;;;2.30;1.53;;;;;;;7.49;100.00;153284.13;4986446;28;21307;-81
2023/12/27 00:17:46;;;;;;;2.50;1.80;;;;;;;7.45;100.00;153273.75;4987663;28;20466;-82
2023/12/27 00:20:13;;;;;;;2.73;1.90;;;;;;;7.44;100.00;153271.16;4959878;28;20473;-82
2023/12/27 00:22:40;;;;;;;2.17;1.77;;;;;;;7.42;100.00;153266.00;4990156;28;20748;-82
2023/12/27 00:25:07;;;;;;;2.23;2.03;;;;;;;7.43;100.00;153267.31;4985470;28;20561;-82
2023/12/27 00:27:34;;;;;;;3.10;1.97;;;;;;;7.45;100.00;153272.47;4972211;28;20469;-82
2023/12/27 00:30:01;;;;;;;3.40;1.60;;;;;;;7.43;100.00;153267.31;4990787;28;20441;-83
2023/12/27 00:32:28;;;;;;;2.10;1.70;;;;;;;7.43;100.00;153268.59;4980087;28;20456;-83
2023/12/27 00:34:55;;;;;;;2.60;1.60;;;;;;;7.41;100.00;153262.16;4971060;28;20449;-83
2023/12/27 00:37:22;;;;;;;2.83;2.03;;;;;;;7.41;100.00;153262.16;4976586;28;20466;-83
2023/12/27 00:39:48;;;;;;;5.00;2.33;;;;;;;7.40;100.00;153260.84;4974576;28;20508;-83
2023/12/27 00:42:15;;;;;;;3.10;1.80;;;;;;;7.43;100.00;153268.59;4975097;28;20458;-83
2023/12/27 00:44:41;;;;;;;2.67;1.70;;;;;;;7.43;100.00;153267.31;4979481;28;20469;-83
2023/12/27 00:47:08;;;;;;;4.10;1.80;;;;;;;7.42;100.00;153266.00;4973760;28;20441;-83
2023/12/27 00:49:35;;;;;;;2.00;1.50;;;;;;;7.42;100.00;153264.69;4956403;28;20482;-83
2023/12/27 00:52:03;;;;;;;2.00;1.80;;;;;;;7.36;100.00;153250.50;4954226;28;20449;-83
2023/12/27 00:54:30;;;;;;;2.97;1.70;;;;;;;7.33;100.00;153244.03;4987923;28;20484;-83
2023/12/27 00:56:56;;;;;;;3.60;1.50;;;;;;;7.30;100.00;153236.34;4958037;28;20462;-83
2023/12/27 00:59:23;;;;;;;2.30;1.83;;;;;;;7.29;100.00;153233.72;4990292;28;20473;-83
2023/12/27 01:01:49;;;;;;;2.83;1.87;;;;;;;7.27;100.00;153227.28;4960032;28;20462;-83
2023/12/27 01:04:16;;;;;;;3.87;2.67;;;;;;;7.25;100.00;153223.38;4971265;28;20943;-83
2023/12/27 01:06:42;;;;;;;3.37;1.33;;;;;;;7.23;100.00;153216.91;4976151;28;20482;-83
2023/12/27 01:09:10;;;;;;;1.93;1.73;;;;;;;7.21;100.00;153213.06;4971176;28;20450;-83
2023/12/27 01:11:37;;;;;;;2.30;1.33;;;;;;;7.20;100.00;153210.47;4981700;28;21010;-83
2023/12/27 01:14:03;;;;;;;2.20;1.57;;;;;;;7.16;100.00;153200.16;4984313;28;20473;-83
2023/12/27 01:16:30;;;;;;;5.43;2.00;;;;;;;7.13;100.00;153192.41;5004497;28;20481;-83
2023/12/27 01:18:56;;;;;;;2.37;1.80;;;;;;;7.10;100.00;153183.34;4982047;28;20556;-83
2023/12/27 01:21:23;;;;;;;2.47;1.90;;;;;;;7.13;100.00;153192.41;4979436;28;20464;-83
2023/12/27 01:23:50;;;;;;;3.20;1.70;;;;;;;7.11;100.00;153187.25;4986734;28;20979;-83
2023/12/27 01:26:18;;;;;;;2.60;1.83;;;;;;;7.09;100.00;153182.09;4974932;28;20855;-83
2023/12/27 01:28:45;;;;;;;3.90;1.90;;;;;;;7.09;100.00;153180.81;4982147;28;20458;-83
2023/12/27 01:31:11;;;;;;;2.47;1.93;;;;;;;7.11;100.00;153185.94;4987744;28;20457;-83
2023/12/27 01:33:38;;;;;;;2.10;1.90;;;;;;;7.12;100.00;153189.81;4956393;28;20457;-84
2023/12/27 01:36:08;;;;;;;2.53;1.60;;;;;;;7.13;100.00;153192.41;4979342;28;20454;-83
2023/12/27 01:38:35;;;;;;;3.60;1.73;;;;;;;7.12;100.00;153189.81;4978370;28;20580;-83
2023/12/27 01:41:03;;;;;;;2.10;1.57;;;;;;;7.13;100.00;153192.41;4972139;28;20854;-83
2023/12/27 01:43:31;;;;;;;2.90;1.60;;;;;;;7.13;100.00;153192.41;4990136;28;20812;-83
2023/12/27 01:45:57;;;;;;;2.33;1.60;;;;;;;7.12;100.00;153189.81;4989082;28;20481;-83
2023/12/27 01:48:24;;;;;;;2.70;1.50;;;;;;;7.11;100.00;153187.25;4978647;28;20453;-83
2023/12/27 01:50:52;;;;;;;3.40;1.97;;;;;;;7.10;100.00;153184.66;4985355;28;20461;-83
2023/12/27 01:53:19;;;;;;;2.43;1.80;;;;;;;7.11;100.00;153185.94;4967017;28;20449;-83
2023/12/27 01:55:48;;;;;;;2.37;1.57;;;;;;;7.12;100.00;153188.56;4972804;28;20453;-83
2023/12/27 01:58:14;;;;;;;2.90;1.40;;;;;;;7.16;100.00;153198.84;4985648;28;20473;-83
2023/12/27 02:00:42;;;;;;;2.60;1.73;;;;;;;7.23;100.00;153218.22;4962777;28;20481;-83
2023/12/27 02:03:10;;;;;;;2.23;1.57;;;;;;;7.23;100.00;153218.22;4971363;28;20526;-82
2023/12/27 02:05:36;;;;;;;2.60;1.57;;;;;;;7.26;100.00;153225.97;5004280;28;20546;-83
2023/12/27 02:08:04;;;;;;;2.00;1.80;;;;;;;7.25;100.00;153222.13;4986454;28;20441;-83
2023/12/27 02:10:30;;;;;;;2.67;1.77;;;;;;;7.22;100.00;153215.66;4997579;28;20465;-83
2023/12/27 02:12:57;;;;;;;2.57;1.50;;;;;;;7.27;100.00;153228.56;5004814;28;20825;-83
2023/12/27 02:15:23;;;;;;;1.90;1.70;;;;;;;7.28;100.00;153229.88;5002824;28;20453;-83
2023/12/27 02:17:52;;;;;;;3.90;1.33;;;;;;;7.28;100.00;153229.88;5009615;28;20816;-83
2023/12/27 02:20:19;;;;;;;2.10;1.67;;;;;;;7.26;100.00;153225.97;4999201;28;20503;-83
2023/12/27 02:22:45;;;;;;;3.63;1.60;;;;;;;7.25;100.00;153222.13;5006629;28;20463;-84
2023/12/27 02:25:14;;;;;;;2.80;1.70;;;;;;;7.23;100.00;153218.22;4989621;28;20453;-83
2023/12/27 02:27:40;;;;;;;2.00;1.30;;;;;;;7.26;100.00;153225.97;5005720;28;20456;-83
2023/12/27 02:30:08;;;;;;;1.87;1.50;;;;;;;7.31;100.00;153238.88;4990803;28;20504;-84
2023/12/27 02:32:36;;;;;;;2.23;1.90;;;;;;;7.29;100.00;153232.44;4990821;28;20444;-83
2023/12/27 02:35:02;;;;;;;3.20;1.90;;;;;;;7.27;100.00;153228.56;5006889;28;20484;-83
2023/12/27 02:37:29;;;;;;;3.00;2.30;;;;;;;7.21;100.00;153213.06;4999742;28;20452;-83
2023/12/27 02:39:57;;;;;;;2.73;1.80;;;;;;;7.19;100.00;153207.91;4981466;28;20477;-83
2023/12/27 02:42:25;;;;;;;5.17;2.23;;;;;;;7.19;100.00;153206.63;5004197;28;21055;-83
2023/12/27 02:44:52;;;;;;;4.00;2.17;;;;;;;7.21;100.00;153213.06;5006958;28;20941;-83
2023/12/27 02:47:18;;;;;;;3.30;2.27;;;;;;;7.15;100.00;153197.56;5006970;28;20835;-83
2023/12/27 02:49:45;;;;;;;3.80;1.80;;;;;;;7.13;100.00;153192.41;4989808;28;20473;-83
2023/12/27 02:52:11;;;;;;;2.80;2.10;;;;;;;7.16;100.00;153200.16;4986295;28;20468;-83
2023/12/27 02:54:38;;;;;;;2.43;1.90;;;;;;;7.14;100.00;153195.00;5007531;28;20436;-83
2023/12/27 02:57:04;;;;;;;2.63;2.03;;;;;;;7.16;100.00;153198.84;5006152;28;20873;-84
2023/12/27 02:59:32;;;;;;;2.40;2.00;;;;;;;7.13;100.00;153191.09;5013498;28;20468;-83
2023/12/27 03:01:59;;;;;;;2.53;2.10;;;;;;;7.10;100.00;153184.66;5011007;28;20982;-83
2023/12/27 03:04:25;;;;;;;3.43;2.33;;;;;;;7.08;100.00;153178.19;4989418;28;20476;-83
2023/12/27 03:06:52;;;;;;;3.30;2.47;;;;;;;7.03;100.00;153166.59;4983419;28;20486;-82
2023/12/27 03:09:18;;;;;;;3.43;2.30;;;;;;;7.01;100.00;153160.13;4995266;28;20456;-83
2023/12/27 03:11:45;;;;;;;3.97;2.93;;;;;;;7.02;100.00;153164.00;4988710;28;20874;-83
2023/12/27 03:14:12;;;;;;;3.53;2.53;;;;;;;7.07;100.00;153176.91;4987916;28;20468;-83
2023/12/27 03:16:39;;;;;;;4.93;2.20;;;;;;;7.05;100.00;153171.75;5004647;28;20939;-83
2023/12/27 03:19:06;;;;;;;2.83;2.00;;;;;;;7.01;100.00;153161.44;4990258;28;20457;-84
2023/12/27 03:21:33;;;;;;;4.30;2.10;;;;;;;7.00;100.00;153158.84;5000538;28;20449;-83
2023/12/27 03:24:01;;;;;;;3.60;2.43;;;;;;;7.00;100.00;153158.84;4979171;28;20496;-83
2023/12/27 03:26:27;;;;;;;4.00;2.57;;;;;;;7.08;100.00;153179.50;4988715;28;20472;-83
2023/12/27 03:28:54;;;;;;;4.97;3.47;;;;;;;7.06;100.00;153173.03;5002939;28;20460;-83
2023/12/27 03:31:28;;;;;;;4.17;3.03;;;;;;;7.02;100.00;153164.00;5002499;28;20459;-83
2023/12/27 03:33:56;;;;;;;4.43;3.40;;;;;;;6.98;100.00;153153.69;4993810;28;20512;-83
2023/12/27 03:36:22;;;;;;;6.73;5.20;;;;;;;7.03;100.00;153166.59;4994604;28;20449;-83
2023/12/27 03:38:49;;;;;;;6.70;5.37;;;;;;;7.01;100.00;153161.44;4989833;28;20456;-83
2023/12/27 03:41:15;;;;;;;5.30;4.57;;;;;;;7.01;100.00;153160.13;4976329;28;20967;-83
2023/12/27 03:43:42;;;;;;;4.20;3.80;;;;;;;7.02;100.00;153164.00;5006009;28;20990;-83
2023/12/27 03:46:07;;;;;;;8.50;4.73;;;;;;;7.03;100.00;153166.59;4972402;28;20549;-83
2023/12/27 03:48:35;;;;;;;8.97;5.13;;;;;;;7.05;100.00;153171.75;4989636;28;20452;-83
2023/12/27 03:51:04;;;;;;;5.97;4.87;;;;;;;7.08;100.00;153179.50;5002425;28;20455;-83
2023/12/27 03:53:31;;;;;;;7.83;3.63;;;;;;;7.06;100.00;153174.34;5012940;28;20448;-83
2023/12/27 03:55:58;;;;;;;3.30;2.93;;;;;;;7.06;100.00;153174.34;5000829;28;20461;-83
2023/12/27 03:58:25;;;;;;;4.27;3.40;;;;;;;7.05;100.00;153171.75;4977619;28;21003;-83
2023/12/27 04:00:52;;;;;;;6.40;3.80;;;;;;;7.09;100.00;153182.09;4979119;28;20444;-82
2023/12/27 04:03:19;;;;;;;5.17;3.10;;;;;;;7.09;100.00;153180.81;5005307;28;20587;-83
2023/12/27 04:05:45;;;;;;;3.30;3.00;;;;;;;7.10;100.00;153184.66;4992351;28;20440;-83
2023/12/27 04:08:13;;;;;;;3.70;2.47;;;;;;;7.12;100.00;153189.81;4986539;28;20488;-83
2023/12/27 04:10:40;;;;;;;3.60;2.73;;;;;;;7.12;100.00;153188.56;4991428;28;20445;-82
2023/12/27 04:13:06;;;;;;;3.60;2.53;;;;;;;7.11;100.00;153187.25;4976949;28;20472;-83
2023/12/27 04:15:33;;;;;;;2.70;2.30;;;;;;;7.09;100.00;153182.09;5007873;28;20456;-83
2023/12/27 04:17:59;;;;;;;5.37;2.40;;;;;;;7.12;100.00;153188.56;5012159;28;20563;-83
2023/12/27 04:20:26;;;;;;;2.40;2.20;;;;;;;7.11;100.00;153187.25;5013762;28;20898;-83
2023/12/27 04:22:53;;;;;;;3.03;2.73;;;;;;;7.09;100.00;153180.81;4969074;28;20598;-83
2023/12/27 04:25:21;;;;;;;2.77;2.07;;;;;;;7.13;100.00;153191.09;4989005;28;20464;-83
2023/12/27 04:27:48;;;;;;;4.47;3.07;;;;;;;7.20;100.00;153209.22;4995649;28;20475;-83
2023/12/27 04:30:14;;;;;;;5.00;3.13;;;;;;;7.19;100.00;153206.63;4977128;28;20487;-83
2023/12/27 04:32:42;;;;;;;3.53;2.50;;;;;;;7.15;100.00;153196.25;5004472;28;20448;-83
2023/12/27 04:35:09;;;;;;;3.60;3.20;;;;;;;7.11;100.00;153187.25;5014090;28;20452;-83
2023/12/27 04:37:35;;;;;;;5.73;2.90;;;;;;;7.07;100.00;153176.91;5010779;28;20456;-83
2023/12/27 04:40:02;;;;;;;3.40;2.70;;;;;;;7.10;100.00;153183.34;4987091;28;20457;-83
2023/12/27 04:42:30;;;;;;;5.50;4.13;;;;;;;7.10;100.00;153184.66;5023569;28;20452;-83
2023/12/27 04:44:56;;;;;;;5.93;3.07;;;;;;;7.12;100.00;153189.81;5005839;28;20508;-83
2023/12/27 04:47:23;;;;;;;4.80;2.90;;;;;;;7.12;100.00;153188.56;4997367;28;21002;-83
2023/12/27 04:49:49;;;;;;;3.37;3.07;;;;;;;7.13;100.00;153192.41;4997653;28;20457;-83
2023/12/27 04:52:16;;;;;;;3.80;3.30;;;;;;;7.09;100.00;153180.81;5009917;28;20453;-82
2023/12/27 04:54:44;;;;;;;3.80;3.03;;;;;;;7.09;100.00;153182.09;5010475;28;20458;-83
2023/12/27 04:57:11;;;;;;;4.90;2.63;;;;;;;7.09;100.00;153182.09;4998869;28;20443;-83
2023/12/27 04:59:39;;;;;;;3.03;2.40;;;;;;;7.03;100.00;153166.59;4999341;28;20453;-82
2023/12/27 05:02:05;;;;;;;3.80;3.33;;;;;;;6.96;100.00;153148.53;4991187;28;20507;-85
2023/12/27 05:04:32;;;;;;;4.10;2.50;;;;;;;6.89;100.00;153129.13;5006567;28;20522;-83
2023/12/27 05:06:58;;;;;;;3.73;2.73;;;;;;;6.87;100.00;153123.97;5007816;28;20476;-83
2023/12/27 05:09:25;;;;;;;4.10;3.70;;;;;;;6.80;100.00;153107.22;5003572;28;20461;-83
2023/12/27 05:11:51;;;;;;;3.40;2.67;;;;;;;6.76;100.00;153096.88;5005643;28;20463;-83
2023/12/27 05:14:18;;;;;;;3.67;2.73;;;;;;;6.67;100.00;153073.66;4989041;28;20826;-83
2023/12/27 05:16:48;;;;;;;3.20;2.53;;;;;;;6.67;100.00;153073.66;4990234;28;20460;-82
2023/12/27 05:19:14;;;;;;;4.17;2.70;;;;;;;6.61;100.00;153058.16;5004995;28;20467;-82
2023/12/27 05:21:41;;;;;;;4.47;3.33;;;;;;;6.60;100.00;153055.56;5008817;28;20445;-83
2023/12/27 05:24:07;;;;;;;6.80;3.37;;;;;;;6.58;100.00;153050.41;4991316;28;20555;-83
2023/12/27 05:26:34;;;;;;;4.80;3.30;;;;;;;6.52;100.00;153036.22;5006403;28;20493;-83
2023/12/27 05:29:00;;;;;;;5.73;3.43;;;;;;;6.50;100.00;153031.06;5019224;28;20452;-83
2023/12/27 05:31:27;;;;;;;5.80;4.10;;;;;;;6.48;100.00;153025.91;4986903;28;20465;-83
2023/12/27 05:33:55;;;;;;;5.03;3.90;;;;;;;6.44;100.00;153014.28;4983276;28;20968;-82
2023/12/27 05:36:22;;;;;;;7.20;4.70;;;;;;;6.45;100.00;153016.88;5016084;28;20444;-82
2023/12/27 05:38:48;;;;;;;10.97;5.17;;;;;;;6.42;100.00;153010.41;4987633;28;20449;-82
2023/12/27 05:41:15;;;;;;;5.60;4.60;;;;;;;6.41;100.00;153007.81;4997714;28;20868;-82
2023/12/27 05:43:41;;;;;;;5.37;4.13;;;;;;;6.41;100.00;153006.53;4990647;28;20510;-82
2023/12/27 05:46:08;;;;;;;4.80;3.83;;;;;;;6.40;100.00;153005.28;5007210;28;20460;-83
2023/12/27 05:48:34;;;;;;;5.83;3.83;;;;;;;6.39;100.00;153001.38;4991983;28;20463;-82
2023/12/27 05:51:02;;;;;;;5.27;3.97;;;;;;;6.34;100.00;152988.47;4988092;28;20453;-82
2023/12/27 05:53:29;;;;;;;5.17;3.37;;;;;;;6.31;100.00;152980.72;4992492;28;20444;-82
2023/12/27 05:55:55;;;;;;;5.10;3.30;;;;;;;6.27;100.00;152971.72;5007723;28;20460;-82
2023/12/27 05:58:22;;;;;;;5.77;4.60;;;;;;;6.23;100.00;152960.06;5008242;28;20841;-82
2023/12/27 06:00:48;;;;;;;5.30;4.03;;;;;;;6.21;100.00;152954.94;4996323;28;20806;-82
2023/12/27 06:03:15;;;;;;;5.37;3.93;;;;;;;6.22;100.00;152957.53;5006174;28;20495;-82
2023/12/27 06:05:42;;;;;;;4.60;3.80;;;;;;;6.24;100.00;152962.66;4984260;28;20457;-82
2023/12/27 06:08:10;;;;;;;3.90;3.10;;;;;;;6.26;100.00;152969.13;4993456;28;20592;-82
2023/12/27 06:10:37;;;;;;;5.70;4.37;;;;;;;6.26;100.00;152969.13;4986748;28;20461;-82
2023/12/27 06:13:04;;;;;;;5.43;3.07;;;;;;;6.24;100.00;152962.66;4964807;28;20470;-82
2023/12/27 06:15:30;;;;;;;5.20;2.83;;;;;;;6.25;100.00;152965.28;4985552;28;20543;-82
2023/12/27 06:17:57;;;;;;;5.80;2.77;;;;;;;6.24;100.00;152962.66;4973020;28;20460;-81
2023/12/27 06:20:24;;;;;;;5.07;3.20;;;;;;;6.26;100.00;152969.13;4993015;28;20452;-83
2023/12/27 06:23:00;;;;;;;3.07;2.50;;;;;;;6.26;100.00;152969.13;4996359;28;20453;-84
2023/12/27 06:25:28;;;;;;;4.00;2.90;;;;;;;6.28;100.00;152972.97;4995707;28;20971;-83
2023/12/27 06:27:55;;;;;;;5.10;3.10;;;;;;;6.27;100.00;152970.41;4981086;28;20562;-83
2023/12/27 06:30:21;;;;;;;5.43;2.77;;;;;;;6.25;100.00;152965.28;4984938;28;20461;-83
2023/12/27 06:32:48;;;;;;;5.00;3.33;;;;;;;6.23;100.00;152961.38;4992503;28;20551;-83
2023/12/27 06:35:15;;;;;;;4.27;3.73;;;;;;;6.20;100.00;152952.31;4993814;28;21057;-84
2023/12/27 06:37:41;;;;;;;5.90;3.93;;;;;;;6.13;100.00;152936.88;4979268;28;20693;-83
2023/12/27 06:40:09;;;;;;;4.93;3.17;;;;;;;6.13;100.00;152935.59;4998293;28;20450;-85
2023/12/27 06:42:37;;;;;;;4.37;3.53;;;;;;;6.11;100.00;152931.72;4991892;28;20963;-83
2023/12/27 06:45:05;;;;;;;3.93;2.70;;;;;;;6.11;100.00;152931.72;4997048;28;20556;-84
2023/12/27 06:47:31;;;;;;;3.40;2.70;;;;;;;6.10;100.00;152929.13;5005198;28;20492;-83
2023/12/27 06:49:58;;;;;;;3.57;2.83;;;;;;;6.08;100.00;152923.97;5000954;28;20453;-82
2023/12/27 06:52:24;;;;;;;6.00;2.90;;;;;;;6.10;100.00;152929.13;4993267;28;20450;-83
2023/12/27 06:54:51;;;;;;;7.30;3.80;;;;;;;6.10;100.00;152929.13;4980627;28;20765;-83
2023/12/27 06:57:17;;;;;;;8.13;4.33;;;;;;;6.10;100.00;152929.13;4990315;28;20540;-83
2023/12/27 06:59:46;;;;;;;5.73;3.87;;;;;;;6.12;100.00;152932.97;4992062;28;20460;-83
2023/12/27 07:02:13;;;;;;;5.97;5.27;;;;;;;6.12;100.00;152932.97;4994854;28;20454;-82
2023/12/27 07:04:40;;;;;;;6.53;5.20;;;;;;;6.14;100.00;152938.19;4997261;28;20476;-83
2023/12/27 07:07:06;;;;;;;5.17;4.37;;;;;;;6.14;100.00;152938.19;4996095;28;20955;-83
2023/12/27 07:09:32;;;;;;;4.93;4.17;;;;;;;6.16;100.00;152943.31;4972108;28;20586;-83
2023/12/27 07:11:59;;;;;;;5.70;4.20;;;;;;;6.17;100.00;152945.88;4999996;28;20939;-83
2023/12/27 07:14:25;;;;;;;6.03;5.10;;;;;;;6.20;100.00;152953.63;4972959;28;20208;-83
2023/12/27 07:16:53;;;;;;;4.43;4.00;;;;;;;6.20;100.00;152953.63;4993781;28;20447;-83
2023/12/27 07:19:20;;;;;;;6.00;4.57;;;;;;;6.22;100.00;152957.53;4998763;28;20461;-83
2023/12/27 07:21:48;;;;;;;6.97;4.97;;;;;;;6.21;100.00;152954.94;4996900;28;20865;-83
2023/12/27 07:24:14;;;;;;;9.23;6.73;;;;;;;6.23;100.00;152960.06;4996678;28;20452;-83
2023/12/27 07:26:41;;;;;;;12.93;8.83;;;;;;;6.22;100.00;152957.53;4994819;28;20982;-83
2023/12/27 07:29:07;;;;;;;12.90;9.90;;;;;;;6.22;100.00;152958.81;4976539;28;20457;-82
2023/12/27 07:31:34;;;;;;;13.47;9.77;;;;;;;6.23;100.00;152961.38;4997903;28;20463;-82
2023/12/27 07:34:02;;;;;;;11.20;8.73;;;;;;;6.29;100.00;152975.56;4998368;28;21078;-83
2023/12/27 07:36:28;;;;;;;7.90;7.10;;;;;;;6.24;100.00;152963.97;4982974;28;20806;-82
2023/12/27 07:38:55;;;;;;;8.33;7.10;;;;;;;6.27;100.00;152970.41;4996493;28;20453;-82
2023/12/27 07:41:21;;;;;;;10.73;6.70;;;;;;;6.20;100.00;152952.31;5001343;28;20453;-83
2023/12/27 07:43:48;;;;;;;7.03;5.97;;;;;;;6.19;100.00;152949.78;5001666;28;20507;-83
2023/12/27 07:46:15;;;;;;;7.57;6.53;;;;;;;6.20;100.00;152952.31;4981494;28;20453;-83
2023/12/27 07:48:41;;;;;;;8.47;7.27;;;;;;;6.17;100.00;152944.63;4976343;28;20480;-83
2023/12/27 07:51:09;;;;;;;8.43;5.60;;;;;;;6.16;100.00;152942.03;5000549;28;20461;-82
2023/12/27 07:53:36;;;;;;;6.67;5.63;;;;;;;6.14;100.00;152938.19;5000739;28;20456;-82
2023/12/27 07:56:02;;;;;;;6.97;5.60;;;;;;;6.14;100.00;152938.19;4999517;28;20467;-82
2023/12/27 07:58:28;;;;;;;8.40;7.30;;;;;;;6.08;100.00;152923.97;5006814;28;20460;-83
2023/12/27 08:00:58;;;;;;;6.10;5.50;;;;;;;6.09;100.00;152926.53;5008225;28;20686;-82
2023/12/27 08:03:24;;;;;;;7.23;6.13;;;;;;;6.10;100.00;152927.84;5000110;28;20491;-82
2023/12/27 08:05:51;;;;;;;6.93;5.87;;;;;;;6.11;100.00;152930.44;4999962;28;20448;-82
2023/12/27 08:08:19;;;;;;;8.07;6.83;;;;;;;6.09;100.00;152926.53;4999604;28;20479;-83
2023/12/27 08:10:45;;;;;;;7.70;6.80;;;;;;;6.09;100.00;152925.22;4983457;28;20455;-82
2023/12/27 08:13:12;;;;;;;8.43;7.50;;;;;;;6.09;100.00;152926.53;5005975;28;20461;-82
2023/12/27 08:15:40;;;;;;;9.37;7.03;;;;;;;6.10;100.00;152929.13;5011964;28;20456;-82
2023/12/27 08:18:06;;;;;;;7.13;5.80;;;;;;;6.10;100.00;152927.84;4994994;28;20786;-82
2023/12/27 08:20:33;;;;;;;6.67;5.60;;;;;;;6.07;100.00;152921.38;4999261;28;20953;-82
2023/12/27 08:22:59;;;;;;;6.40;5.57;;;;;;;6.07;100.00;152921.38;4999119;28;20518;-82
2023/12/27 08:25:27;;;;;;;6.80;5.63;;;;;;;6.08;100.00;152922.69;4982093;28;20462;-82
2023/12/27 08:27:54;;;;;;;6.53;5.83;;;;;;;6.11;100.00;152931.72;4995865;28;20538;-82
2023/12/27 08:30:21;;;;;;;6.77;6.03;;;;;;;6.16;100.00;152943.31;4997486;28;20857;-82
2023/12/27 08:32:48;;;;;;;6.50;5.83;;;;;;;6.19;100.00;152949.78;4996767;28;20464;-83
2023/12/27 08:35:14;;;;;;;7.10;6.10;;;;;;;6.19;100.00;152949.78;4997896;28;20460;-83
2023/12/27 08:37:41;;;;;;;8.50;6.90;;;;;;;6.22;100.00;152957.53;4999580;28;20951;-83
2023/12/27 08:40:09;;;;;;;6.80;5.70;;;;;;;6.24;100.00;152962.66;5014834;28;20452;-83
2023/12/27 08:42:37;;;;;;;9.50;5.80;;;;;;;6.26;100.00;152969.13;4979702;28;20466;-83
2023/12/27 08:45:04;;;;;;;6.77;6.07;;;;;;;6.25;100.00;152966.53;4995776;28;20454;-83
2023/12/27 08:47:30;;;;;;;6.80;6.10;;;;;;;6.30;100.00;152978.16;5005689;28;20652;-83
2023/12/27 08:49:57;;;;;;;6.10;5.50;;;;;;;6.27;100.00;152971.72;5006558;28;20539;-83
2023/12/27 08:52:23;;;;;;;8.47;5.17;;;;;;;6.32;100.00;152983.31;4995978;28;20489;-83
2023/12/27 08:54:50;;;;;;;5.73;4.50;;;;;;;6.30;100.00;152979.41;4976998;28;20469;-83
2023/12/27 08:57:16;;;;;;;7.37;5.30;;;;;;;6.24;100.00;152962.66;4978899;28;20461;-83
2023/12/27 08:59:44;;;;;;;5.60;5.00;;;;;;;6.23;100.00;152960.06;4993823;28;20461;-82
2023/12/27 09:02:11;;;;;;;7.00;5.37;;;;;;;6.24;100.00;152962.66;4995988;28;20978;-82
2023/12/27 09:04:38;;;;;;;7.07;4.53;;;;;;;6.26;100.00;152969.13;4993555;28;20477;-83
2023/12/27 09:07:04;;;;;;;4.80;4.17;;;;;;;6.31;100.00;152980.72;5000318;28;20463;-82
2023/12/27 09:09:31;;;;;;;5.67;4.00;;;;;;;6.30;100.00;152978.16;4975294;28;20468;-81
2023/12/27 09:11:57;;;;;;;5.17;3.83;;;;;;;6.30;100.00;152978.16;4995397;28;20464;-83
2023/12/27 09:14:27;;;;;;;5.83;3.80;;;;;;;6.31;100.00;152982.03;4998095;28;20975;-83
2023/12/27 09:16:55;;;;;;;5.50;4.27;;;;;;;6.33;100.00;152987.16;4998178;28;20536;-82
2023/12/27 09:19:22;;;;;;;5.37;4.37;;;;;;;6.39;100.00;153001.38;4999642;28;20827;-82
2023/12/27 09:21:48;;;;;;;5.60;4.30;;;;;;;6.39;100.00;153001.38;4985785;28;20474;-84
2023/12/27 09:24:15;;;;;;;6.10;4.50;;;;;;;6.41;100.00;153006.53;5001538;28;21028;-83
2023/12/27 09:26:41;;;;;;;5.50;3.80;;;;;;;6.44;100.00;153014.28;5000282;28;20457;-82
2023/12/27 09:29:10;;;;;;;5.63;3.50;;;;;;;6.49;100.00;153028.47;4997473;28;20469;-82
2023/12/27 09:31:37;;;;;;;6.30;4.47;;;;;;;6.53;100.00;153037.50;5001611;28;20966;-82
2023/12/27 09:34:05;;;;;;;10.20;4.40;;;;;;;6.59;100.00;153053.00;4995350;28;20540;-82
2023/12/27 09:36:31;;;;;;;4.60;3.63;;;;;;;6.65;100.00;153069.78;4996660;28;20456;-82
2023/12/27 09:38:58;;;;;;;5.50;3.40;;;;;;;6.70;100.00;153081.38;4998008;28;20808;-82
2023/12/27 09:41:24;;;;;;;4.10;3.33;;;;;;;6.74;100.00;153091.72;5001727;28;20530;-82
2023/12/27 09:43:53;;;;;;;4.10;3.43;;;;;;;6.75;100.00;153094.31;4998661;28;20460;-75
2023/12/27 09:46:20;;;;;;;4.70;3.27;;;;;;;6.75;100.00;153094.31;4980735;28;20484;-75
2023/12/27 09:48:48;;;;;;;5.60;4.40;;;;;;;6.77;100.00;153099.47;4996637;28;20484;-75
2023/12/27 09:51:22;;;;;;;5.40;3.77;;;;;;;6.79;100.00;153104.63;4996869;28;20460;-75
2023/12/27 09:53:49;;;;;;;6.80;4.37;;;;;;;6.81;100.00;153109.78;4979079;28;20882;-75
2023/12/27 09:56:16;;;;;;;4.70;3.83;;;;;;;6.84;100.00;153116.22;4997636;28;20977;-75
2023/12/27 09:58:43;;;;;;;5.50;4.03;;;;;;;6.85;100.00;153120.13;4969634;28;20453;-75
2023/12/27 10:01:10;;;;;;;5.67;4.13;;;;;;;6.87;100.00;153123.97;4997489;28;20460;-75
2023/12/27 10:03:38;;;;;;;4.77;4.23;;;;;;;6.85;100.00;153120.13;4995952;28;20630;-75
2023/12/27 10:06:16;;;;;;;7.27;4.80;;;;;;;6.88;100.00;153127.88;4996834;28;20848;-75
2023/12/27 10:08:45;;;;;;;5.60;4.27;;;;;;;6.89;100.00;153129.13;4997739;28;20483;-75
2023/12/27 10:11:12;;;;;;;5.83;4.67;;;;;;;6.92;100.00;153138.19;4994885;28;20449;-75
2023/12/27 10:13:41;;;;;;;6.00;4.63;;;;;;;6.94;100.00;153143.34;4994331;28;20449;-75
2023/12/27 10:16:08;;;;;;;4.57;4.17;;;;;;;6.96;100.00;153147.25;4992817;28;20445;-75
2023/12/27 10:18:34;;;;;;;6.63;4.57;;;;;;;6.97;100.00;153149.78;4985557;28;20516;-75
2023/12/27 10:21:01;;;;;;;5.23;4.10;;;;;;;6.96;100.00;153148.53;4995961;28;20463;-76
2023/12/27 10:23:28;;;;;;;7.10;4.67;;;;;;;6.98;100.00;153153.69;4974884;28;20560;-75
2023/12/27 10:25:56;;;;;;;6.20;4.50;;;;;;;6.98;100.00;153153.69;4990294;28;20457;-75
2023/12/27 10:28:23;;;;;;;4.27;3.60;;;;;;;6.99;100.00;153156.25;4992635;28;20559;-75
2023/12/27 10:30:51;;;;;;;4.50;3.60;;;;;;;7.01;100.00;153161.44;4996174;28;20450;-75
2023/12/27 10:33:19;;;;;;;3.97;3.50;;;;;;;7.02;100.00;153164.00;4995877;28;20488;-75
2023/12/27 10:35:46;;;;;;;5.23;3.27;;;;;;;7.05;100.00;153170.44;4976202;28;20485;-74
2023/12/27 10:38:13;;;;;;;5.10;4.10;;;;;;;7.08;100.00;153179.50;4997169;28;20793;-74
2023/12/27 10:40:40;;;;;;;5.07;3.63;;;;;;;7.12;100.00;153188.56;4996091;28;20456;-75
2023/12/27 10:43:08;;;;;;;4.70;3.60;;;;;;;7.18;100.00;153205.31;4994894;28;20559;-74
2023/12/27 10:45:36;;;;;;;5.10;4.60;;;;;;;7.26;100.00;153224.66;4994984;28;20496;-74
2023/12/27 10:48:05;;;;;;;5.23;4.03;;;;;;;7.27;100.00;153228.56;4979015;28;20477;-75
2023/12/27 10:50:34;;;;;;;7.20;3.23;;;;;;;7.28;100.00;153231.13;4995398;28;20456;-75
2023/12/27 10:53:05;;;;;;;4.33;2.80;;;;;;;7.33;100.00;153244.03;4994494;28;20460;-74
2023/12/27 10:55:33;;;;;;;4.60;2.83;;;;;;;7.36;100.00;153251.78;4974235;28;20564;-75
2023/12/27 10:58:01;;;;;;;3.30;2.30;;;;;;;7.36;100.00;153250.50;4979093;28;20453;-74
2023/12/27 11:00:29;;;;;;;3.30;3.00;;;;;;;7.36;100.00;153251.78;4995844;28;20943;-75
2023/12/27 11:02:57;;;;;;;2.90;2.13;;;;;;;7.41;100.00;153262.16;4996959;28;20592;-75
2023/12/27 11:05:26;;;;;;;3.33;2.30;;;;;;;7.46;100.00;153276.34;4995806;28;20799;-83
2023/12/27 11:07:54;;;;;;;4.30;2.43;;;;;;;7.50;100.00;153285.38;4993728;28;20469;-83
2023/12/27 11:10:21;;;;;;;2.93;2.50;;;;;;;7.52;100.00;153290.56;4995197;28;20535;-82
2023/12/27 11:12:48;;;;;;;2.70;2.13;;;;;;;7.63;100.00;153318.94;4996205;28;20787;-82
2023/12/27 11:15:15;;;;;;;3.30;2.43;;;;;;;7.72;100.00;153342.22;4999190;28;20457;-82
2023/12/27 11:17:43;;;;;;;5.10;2.20;;;;;;;7.78;100.00;153357.72;4994897;28;21089;-83
2023/12/27 11:20:10;;;;;;;3.50;2.03;;;;;;;7.77;100.00;153355.13;4999267;28;20517;-82
2023/12/27 11:22:37;;;;;;;5.43;2.70;;;;;;;7.81;100.00;153365.50;5002428;28;20456;-82